sensor_id;sensor_type;location;lat;lon;timestamp;P1;durP1;ratioP1;P2;durP2;ratioP2
55114;SDS011;41010;53.252;5.786;2023-01-24T00:00:17;13.95;;;9.02;;
55114;SDS011;41010;53.252;5.786;2023-01-24T00:02:44;15.65;;;9.20;;
55114;SDS011;41010;53.252;5.786;2023-01-24T00:05:11;15.13;;;9.55;;
55114;SDS011;41010;53.252;5.786;2023-01-24T00:07:39;15.98;;;10.30;;
55114;SDS011;41010;53.252;5.786;2023-01-24T00:10:06;15.38;;;9.95;;
55114;SDS011;41010;53.252;5.786;2023-01-24T00:12:34;16.15;;;10.75;;
55114;SDS011;41010;53.252;5.786;2023-01-24T00:15:03;16.52;;;10.10;;
55114;SDS011;41010;53.252;5.786;2023-01-24T00:17:30;16.23;;;10.75;;
55114;SDS011;41010;53.252;5.786;2023-01-24T00:19:57;17.30;;;10.57;;
55114;SDS011;41010;53.252;5.786;2023-01-24T00:22:24;15.75;;;10.07;;
55114;SDS011;41010;53.252;5.786;2023-01-24T00:24:52;16.27;;;10.10;;
55114;SDS011;41010;53.252;5.786;2023-01-24T00:27:19;15.75;;;10.32;;
55114;SDS011;41010;53.252;5.786;2023-01-24T00:29:46;14.57;;;10.10;;
55114;SDS011;41010;53.252;5.786;2023-01-24T00:32:15;15.32;;;10.35;;
55114;SDS011;41010;53.252;5.786;2023-01-24T00:34:42;16.15;;;10.55;;
55114;SDS011;41010;53.252;5.786;2023-01-24T00:37:09;16.58;;;10.60;;
55114;SDS011;41010;53.252;5.786;2023-01-24T00:39:36;18.35;;;11.07;;
55114;SDS011;41010;53.252;5.786;2023-01-24T00:42:04;16.35;;;10.65;;
55114;SDS011;41010;53.252;5.786;2023-01-24T00:44:31;16.63;;;10.90;;
55114;SDS011;41010;53.252;5.786;2023-01-24T00:46:58;17.02;;;10.57;;
55114;SDS011;41010;53.252;5.786;2023-01-24T00:49:27;16.50;;;11.77;;
55114;SDS011;41010;53.252;5.786;2023-01-24T00:51:54;15.50;;;10.70;;
55114;SDS011;41010;53.252;5.786;2023-01-24T00:54:21;16.67;;;10.82;;
55114;SDS011;41010;53.252;5.786;2023-01-24T00:56:49;16.30;;;10.85;;
55114;SDS011;41010;53.252;5.786;2023-01-24T00:59:16;15.30;;;10.68;;
55114;SDS011;41010;53.252;5.786;2023-01-24T01:01:43;17.42;;;11.55;;
55114;SDS011;41010;53.252;5.786;2023-01-24T01:04:10;15.90;;;11.35;;
55114;SDS011;41010;53.252;5.786;2023-01-24T01:06:39;17.08;;;10.50;;
55114;SDS011;41010;53.252;5.786;2023-01-24T01:09:06;15.52;;;11.07;;
55114;SDS011;41010;53.252;5.786;2023-01-24T01:11:33;17.05;;;11.30;;
55114;SDS011;41010;53.252;5.786;2023-01-24T01:14:01;19.05;;;11.95;;
55114;SDS011;41010;53.252;5.786;2023-01-24T01:16:28;17.50;;;11.65;;
55114;SDS011;41010;53.252;5.786;2023-01-24T01:18:57;18.52;;;11.27;;
55114;SDS011;41010;53.252;5.786;2023-01-24T01:21:24;18.52;;;11.48;;
55114;SDS011;41010;53.252;5.786;2023-01-24T01:23:53;18.83;;;11.73;;
55114;SDS011;41010;53.252;5.786;2023-01-24T01:26:21;16.15;;;10.60;;
55114;SDS011;41010;53.252;5.786;2023-01-24T01:28:48;20.48;;;11.73;;
55114;SDS011;41010;53.252;5.786;2023-01-24T01:31:15;19.88;;;12.05;;
55114;SDS011;41010;53.252;5.786;2023-01-24T01:33:43;19.55;;;12.35;;
55114;SDS011;41010;53.252;5.786;2023-01-24T01:36:10;14.57;;;10.90;;
55114;SDS011;41010;53.252;5.786;2023-01-24T01:38:37;16.67;;;11.13;;
55114;SDS011;41010;53.252;5.786;2023-01-24T01:41:06;17.33;;;11.80;;
55114;SDS011;41010;53.252;5.786;2023-01-24T01:43:33;18.05;;;11.43;;
55114;SDS011;41010;53.252;5.786;2023-01-24T01:46:04;17.90;;;11.50;;
55114;SDS011;41010;53.252;5.786;2023-01-24T01:48:35;16.92;;;11.63;;
55114;SDS011;41010;53.252;5.786;2023-01-24T01:51:04;17.85;;;11.80;;
55114;SDS011;41010;53.252;5.786;2023-01-24T01:53:34;19.10;;;11.88;;
55114;SDS011;41010;53.252;5.786;2023-01-24T01:56:03;17.77;;;11.43;;
55114;SDS011;41010;53.252;5.786;2023-01-24T01:58:32;16.90;;;10.93;;
55114;SDS011;41010;53.252;5.786;2023-01-24T02:01:00;17.08;;;11.45;;
55114;SDS011;41010;53.252;5.786;2023-01-24T02:06:54;15.95;;;10.68;;
55114;SDS011;41010;53.252;5.786;2023-01-24T02:09:26;19.17;;;12.55;;
55114;SDS011;41010;53.252;5.786;2023-01-24T02:11:54;17.88;;;11.70;;
55114;SDS011;41010;53.252;5.786;2023-01-24T02:14:24;18.90;;;11.57;;
55114;SDS011;41010;53.252;5.786;2023-01-24T02:17:09;17.85;;;11.43;;
55114;SDS011;41010;53.252;5.786;2023-01-24T02:19:42;16.75;;;11.25;;
55114;SDS011;41010;53.252;5.786;2023-01-24T02:22:14;18.52;;;12.27;;
55114;SDS011;41010;53.252;5.786;2023-01-24T02:24:44;19.17;;;12.25;;
55114;SDS011;41010;53.252;5.786;2023-01-24T02:27:14;16.92;;;11.32;;
55114;SDS011;41010;53.252;5.786;2023-01-24T02:29:41;18.73;;;12.50;;
55114;SDS011;41010;53.252;5.786;2023-01-24T02:32:08;19.35;;;11.88;;
55114;SDS011;41010;53.252;5.786;2023-01-24T02:34:38;18.10;;;12.27;;
55114;SDS011;41010;53.252;5.786;2023-01-24T02:37:06;17.23;;;12.05;;
55114;SDS011;41010;53.252;5.786;2023-01-24T02:39:35;19.15;;;12.50;;
55114;SDS011;41010;53.252;5.786;2023-01-24T02:42:05;16.52;;;11.05;;
55114;SDS011;41010;53.252;5.786;2023-01-24T02:44:37;17.42;;;11.40;;
55114;SDS011;41010;53.252;5.786;2023-01-24T02:47:07;19.15;;;13.23;;
55114;SDS011;41010;53.252;5.786;2023-01-24T02:49:34;18.90;;;12.50;;
55114;SDS011;41010;53.252;5.786;2023-01-24T02:52:02;17.67;;;11.75;;
55114;SDS011;41010;53.252;5.786;2023-01-24T02:54:45;17.42;;;11.70;;
55114;SDS011;41010;53.252;5.786;2023-01-24T02:57:13;18.00;;;12.25;;
55114;SDS011;41010;53.252;5.786;2023-01-24T02:59:59;19.48;;;11.98;;
55114;SDS011;41010;53.252;5.786;2023-01-24T03:02:26;17.33;;;11.20;;
55114;SDS011;41010;53.252;5.786;2023-01-24T03:04:53;19.00;;;12.05;;
55114;SDS011;41010;53.252;5.786;2023-01-24T03:07:20;17.88;;;11.65;;
55114;SDS011;41010;53.252;5.786;2023-01-24T03:09:48;17.50;;;11.63;;
55114;SDS011;41010;53.252;5.786;2023-01-24T03:12:15;20.13;;;12.23;;
55114;SDS011;41010;53.252;5.786;2023-01-24T03:15:01;17.75;;;11.65;;
55114;SDS011;41010;53.252;5.786;2023-01-24T03:17:46;19.02;;;12.43;;
55114;SDS011;41010;53.252;5.786;2023-01-24T03:20:31;19.30;;;11.90;;
55114;SDS011;41010;53.252;5.786;2023-01-24T03:23:15;16.83;;;11.82;;
55114;SDS011;41010;53.252;5.786;2023-01-24T03:26:00;15.23;;;10.23;;
55114;SDS011;41010;53.252;5.786;2023-01-24T03:28:45;14.13;;;10.10;;
55114;SDS011;41010;53.252;5.786;2023-01-24T03:31:31;19.67;;;11.75;;
55114;SDS011;41010;53.252;5.786;2023-01-24T03:34:16;18.35;;;12.52;;
55114;SDS011;41010;53.252;5.786;2023-01-24T03:36:56;16.70;;;11.18;;
55114;SDS011;41010;53.252;5.786;2023-01-24T03:39:23;17.35;;;11.60;;
55114;SDS011;41010;53.252;5.786;2023-01-24T03:42:08;20.10;;;11.77;;
55114;SDS011;41010;53.252;5.786;2023-01-24T03:44:35;18.67;;;12.00;;
55114;SDS011;41010;53.252;5.786;2023-01-24T03:47:04;20.30;;;12.88;;
55114;SDS011;41010;53.252;5.786;2023-01-24T03:49:31;20.85;;;11.48;;
55114;SDS011;41010;53.252;5.786;2023-01-24T03:52:16;16.77;;;11.50;;
55114;SDS011;41010;53.252;5.786;2023-01-24T03:54:55;17.45;;;11.32;;
55114;SDS011;41010;53.252;5.786;2023-01-24T03:57:22;20.30;;;11.63;;
55114;SDS011;41010;53.252;5.786;2023-01-24T03:59:50;16.77;;;11.07;;
55114;SDS011;41010;53.252;5.786;2023-01-24T04:02:18;18.02;;;11.65;;
55114;SDS011;41010;53.252;5.786;2023-01-24T04:04:46;18.60;;;12.07;;
55114;SDS011;41010;53.252;5.786;2023-01-24T04:07:31;17.52;;;10.82;;
55114;SDS011;41010;53.252;5.786;2023-01-24T04:09:58;18.95;;;11.50;;
55114;SDS011;41010;53.252;5.786;2023-01-24T04:12:26;18.35;;;11.05;;
55114;SDS011;41010;53.252;5.786;2023-01-24T04:14:53;16.08;;;10.80;;
55114;SDS011;41010;53.252;5.786;2023-01-24T04:17:22;18.33;;;11.45;;
55114;SDS011;41010;53.252;5.786;2023-01-24T04:19:49;17.23;;;11.02;;
55114;SDS011;41010;53.252;5.786;2023-01-24T04:22:16;18.35;;;11.85;;
55114;SDS011;41010;53.252;5.786;2023-01-24T04:24:44;19.40;;;10.82;;
55114;SDS011;41010;53.252;5.786;2023-01-24T04:27:11;16.48;;;10.77;;
55114;SDS011;41010;53.252;5.786;2023-01-24T04:29:39;16.20;;;10.73;;
55114;SDS011;41010;53.252;5.786;2023-01-24T04:32:06;17.08;;;11.30;;
55114;SDS011;41010;53.252;5.786;2023-01-24T04:34:35;18.10;;;10.30;;
55114;SDS011;41010;53.252;5.786;2023-01-24T04:37:02;16.40;;;10.23;;
55114;SDS011;41010;53.252;5.786;2023-01-24T04:39:29;17.55;;;11.32;;
55114;SDS011;41010;53.252;5.786;2023-01-24T04:41:57;16.15;;;10.70;;
55114;SDS011;41010;53.252;5.786;2023-01-24T04:44:24;19.25;;;12.27;;
55114;SDS011;41010;53.252;5.786;2023-01-24T04:46:51;17.27;;;11.43;;
55114;SDS011;41010;53.252;5.786;2023-01-24T04:49:18;17.77;;;10.98;;
55114;SDS011;41010;53.252;5.786;2023-01-24T04:51:47;20.05;;;12.25;;
55114;SDS011;41010;53.252;5.786;2023-01-24T04:54:15;16.02;;;10.75;;
55114;SDS011;41010;53.252;5.786;2023-01-24T04:56:42;14.77;;;10.05;;
55114;SDS011;41010;53.252;5.786;2023-01-24T04:59:10;15.30;;;10.32;;
55114;SDS011;41010;53.252;5.786;2023-01-24T05:01:38;19.00;;;11.80;;
55114;SDS011;41010;53.252;5.786;2023-01-24T05:04:05;18.88;;;11.75;;
55114;SDS011;41010;53.252;5.786;2023-01-24T05:06:33;16.15;;;9.80;;
55114;SDS011;41010;53.252;5.786;2023-01-24T05:09:02;14.32;;;8.82;;
55114;SDS011;41010;53.252;5.786;2023-01-24T05:11:29;13.95;;;9.70;;
55114;SDS011;41010;53.252;5.786;2023-01-24T05:13:56;15.45;;;9.88;;
55114;SDS011;41010;53.252;5.786;2023-01-24T05:16:24;13.95;;;10.02;;
55114;SDS011;41010;53.252;5.786;2023-01-24T05:18:51;15.55;;;10.90;;
55114;SDS011;41010;53.252;5.786;2023-01-24T05:21:18;16.38;;;11.25;;
55114;SDS011;41010;53.252;5.786;2023-01-24T05:23:48;16.00;;;10.85;;
55114;SDS011;41010;53.252;5.786;2023-01-24T05:26:17;15.10;;;10.10;;
55114;SDS011;41010;53.252;5.786;2023-01-24T05:28:46;15.02;;;10.48;;
55114;SDS011;41010;53.252;5.786;2023-01-24T05:31:13;17.23;;;10.85;;
55114;SDS011;41010;53.252;5.786;2023-01-24T05:33:41;18.35;;;11.45;;
55114;SDS011;41010;53.252;5.786;2023-01-24T05:36:08;20.42;;;12.25;;
55114;SDS011;41010;53.252;5.786;2023-01-24T05:38:36;15.20;;;10.35;;
55114;SDS011;41010;53.252;5.786;2023-01-24T05:41:03;16.00;;;10.43;;
55114;SDS011;41010;53.252;5.786;2023-01-24T05:43:32;17.42;;;11.35;;
55114;SDS011;41010;53.252;5.786;2023-01-24T05:46:00;16.95;;;11.82;;
55114;SDS011;41010;53.252;5.786;2023-01-24T05:48:28;19.08;;;12.23;;
55114;SDS011;41010;53.252;5.786;2023-01-24T05:50:56;20.90;;;12.85;;
55114;SDS011;41010;53.252;5.786;2023-01-24T05:53:23;19.17;;;12.23;;
55114;SDS011;41010;53.252;5.786;2023-01-24T05:55:54;18.52;;;11.13;;
55114;SDS011;41010;53.252;5.786;2023-01-24T05:58:21;13.68;;;9.18;;
55114;SDS011;41010;53.252;5.786;2023-01-24T06:00:49;16.80;;;11.32;;
55114;SDS011;41010;53.252;5.786;2023-01-24T06:03:17;16.92;;;11.57;;
55114;SDS011;41010;53.252;5.786;2023-01-24T06:05:45;17.35;;;10.23;;
55114;SDS011;41010;53.252;5.786;2023-01-24T06:08:12;16.75;;;10.52;;
55114;SDS011;41010;53.252;5.786;2023-01-24T06:10:39;17.45;;;11.60;;
55114;SDS011;41010;53.252;5.786;2023-01-24T06:13:06;14.02;;;10.00;;
55114;SDS011;41010;53.252;5.786;2023-01-24T06:15:34;17.40;;;11.48;;
55114;SDS011;41010;53.252;5.786;2023-01-24T06:18:03;17.42;;;11.40;;
55114;SDS011;41010;53.252;5.786;2023-01-24T06:20:30;17.23;;;10.77;;
55114;SDS011;41010;53.252;5.786;2023-01-24T06:22:59;17.63;;;10.70;;
55114;SDS011;41010;53.252;5.786;2023-01-24T06:25:29;14.75;;;9.60;;
55114;SDS011;41010;53.252;5.786;2023-01-24T06:27:56;14.75;;;9.75;;
55114;SDS011;41010;53.252;5.786;2023-01-24T06:30:24;16.70;;;9.93;;
55114;SDS011;41010;53.252;5.786;2023-01-24T06:33:01;16.83;;;10.43;;
55114;SDS011;41010;53.252;5.786;2023-01-24T06:35:35;13.93;;;9.93;;
55114;SDS011;41010;53.252;5.786;2023-01-24T06:38:04;14.57;;;10.38;;
55114;SDS011;41010;53.252;5.786;2023-01-24T06:40:31;15.00;;;10.40;;
55114;SDS011;41010;53.252;5.786;2023-01-24T06:42:58;13.63;;;9.98;;
55114;SDS011;41010;53.252;5.786;2023-01-24T06:45:26;17.58;;;10.75;;
55114;SDS011;41010;53.252;5.786;2023-01-24T06:47:53;18.05;;;10.43;;
55114;SDS011;41010;53.252;5.786;2023-01-24T06:50:22;17.20;;;11.15;;
55114;SDS011;41010;53.252;5.786;2023-01-24T06:52:55;16.55;;;10.95;;
55114;SDS011;41010;53.252;5.786;2023-01-24T06:55:23;16.20;;;10.52;;
55114;SDS011;41010;53.252;5.786;2023-01-24T06:57:53;17.23;;;11.30;;
55114;SDS011;41010;53.252;5.786;2023-01-24T07:00:20;17.48;;;10.55;;
55114;SDS011;41010;53.252;5.786;2023-01-24T07:02:48;18.73;;;11.13;;
55114;SDS011;41010;53.252;5.786;2023-01-24T07:05:15;20.10;;;12.32;;
55114;SDS011;41010;53.252;5.786;2023-01-24T07:07:42;17.50;;;11.10;;
55114;SDS011;41010;53.252;5.786;2023-01-24T07:10:11;19.17;;;11.63;;
55114;SDS011;41010;53.252;5.786;2023-01-24T07:12:41;19.58;;;12.10;;
55114;SDS011;41010;53.252;5.786;2023-01-24T07:15:08;18.85;;;12.32;;
55114;SDS011;41010;53.252;5.786;2023-01-24T07:17:36;19.13;;;12.13;;
55114;SDS011;41010;53.252;5.786;2023-01-24T07:20:04;17.42;;;11.60;;
55114;SDS011;41010;53.252;5.786;2023-01-24T07:22:31;16.80;;;12.13;;
55114;SDS011;41010;53.252;5.786;2023-01-24T07:24:59;17.60;;;12.05;;
55114;SDS011;41010;53.252;5.786;2023-01-24T07:27:28;18.00;;;11.23;;
55114;SDS011;41010;53.252;5.786;2023-01-24T07:29:55;19.13;;;12.38;;
55114;SDS011;41010;53.252;5.786;2023-01-24T07:32:23;20.55;;;13.05;;
55114;SDS011;41010;53.252;5.786;2023-01-24T07:34:50;18.15;;;12.20;;
55114;SDS011;41010;53.252;5.786;2023-01-24T07:37:17;17.85;;;11.73;;
55114;SDS011;41010;53.252;5.786;2023-01-24T07:39:46;18.80;;;12.55;;
55114;SDS011;41010;53.252;5.786;2023-01-24T07:42:13;20.30;;;13.15;;
55114;SDS011;41010;53.252;5.786;2023-01-24T07:44:42;19.67;;;13.00;;
55114;SDS011;41010;53.252;5.786;2023-01-24T07:47:09;19.75;;;13.13;;
55114;SDS011;41010;53.252;5.786;2023-01-24T07:49:37;20.38;;;12.80;;
55114;SDS011;41010;53.252;5.786;2023-01-24T07:52:04;22.48;;;14.80;;
55114;SDS011;41010;53.252;5.786;2023-01-24T07:54:31;20.77;;;13.65;;
55114;SDS011;41010;53.252;5.786;2023-01-24T07:56:59;23.27;;;13.77;;
55114;SDS011;41010;53.252;5.786;2023-01-24T07:59:26;22.75;;;14.25;;
55114;SDS011;41010;53.252;5.786;2023-01-24T08:01:54;24.85;;;15.75;;
55114;SDS011;41010;53.252;5.786;2023-01-24T08:04:22;22.00;;;14.40;;
55114;SDS011;41010;53.252;5.786;2023-01-24T08:06:49;21.70;;;14.48;;
55114;SDS011;41010;53.252;5.786;2023-01-24T08:09:34;23.70;;;14.38;;
55114;SDS011;41010;53.252;5.786;2023-01-24T08:12:01;23.58;;;15.07;;
55114;SDS011;41010;53.252;5.786;2023-01-24T08:14:28;22.90;;;15.43;;
55114;SDS011;41010;53.252;5.786;2023-01-24T08:16:57;26.35;;;15.95;;
55114;SDS011;41010;53.252;5.786;2023-01-24T08:19:24;25.85;;;16.23;;
55114;SDS011;41010;53.252;5.786;2023-01-24T08:21:51;29.27;;;17.10;;
55114;SDS011;41010;53.252;5.786;2023-01-24T08:24:18;25.13;;;16.35;;
55114;SDS011;41010;53.252;5.786;2023-01-24T08:26:46;28.05;;;17.30;;
55114;SDS011;41010;53.252;5.786;2023-01-24T08:29:14;25.42;;;16.73;;
55114;SDS011;41010;53.252;5.786;2023-01-24T08:31:41;25.15;;;17.30;;
55114;SDS011;41010;53.252;5.786;2023-01-24T08:34:10;27.20;;;17.08;;
55114;SDS011;41010;53.252;5.786;2023-01-24T08:36:37;24.73;;;16.98;;
55114;SDS011;41010;53.252;5.786;2023-01-24T08:39:04;26.58;;;17.65;;
55114;SDS011;41010;53.252;5.786;2023-01-24T08:41:32;29.65;;;18.88;;
55114;SDS011;41010;53.252;5.786;2023-01-24T08:44:00;28.50;;;18.52;;
55114;SDS011;41010;53.252;5.786;2023-01-24T08:46:27;30.83;;;18.83;;
55114;SDS011;41010;53.252;5.786;2023-01-24T08:48:54;26.92;;;17.48;;
55114;SDS011;41010;53.252;5.786;2023-01-24T08:51:23;26.05;;;17.50;;
55114;SDS011;41010;53.252;5.786;2023-01-24T08:53:50;28.25;;;17.90;;
55114;SDS011;41010;53.252;5.786;2023-01-24T08:56:18;28.52;;;16.73;;
55114;SDS011;41010;53.252;5.786;2023-01-24T08:58:45;30.58;;;18.55;;
55114;SDS011;41010;53.252;5.786;2023-01-24T09:01:12;35.55;;;22.13;;
55114;SDS011;41010;53.252;5.786;2023-01-24T09:03:39;34.38;;;20.33;;
55114;SDS011;41010;53.252;5.786;2023-01-24T09:06:06;28.95;;;18.85;;
55114;SDS011;41010;53.252;5.786;2023-01-24T09:08:36;29.15;;;19.15;;
55114;SDS011;41010;53.252;5.786;2023-01-24T09:11:03;29.23;;;17.30;;
55114;SDS011;41010;53.252;5.786;2023-01-24T09:13:31;32.05;;;18.17;;
55114;SDS011;41010;53.252;5.786;2023-01-24T09:15:58;29.13;;;18.50;;
55114;SDS011;41010;53.252;5.786;2023-01-24T09:18:25;29.77;;;18.20;;
55114;SDS011;41010;53.252;5.786;2023-01-24T09:20:52;29.58;;;19.33;;
55114;SDS011;41010;53.252;5.786;2023-01-24T09:23:21;32.63;;;19.17;;
55114;SDS011;41010;53.252;5.786;2023-01-24T09:25:50;29.52;;;19.65;;
55114;SDS011;41010;53.252;5.786;2023-01-24T09:28:18;29.45;;;18.80;;
55114;SDS011;41010;53.252;5.786;2023-01-24T09:30:46;29.95;;;18.40;;
55114;SDS011;41010;53.252;5.786;2023-01-24T09:33:14;30.95;;;18.15;;
55114;SDS011;41010;53.252;5.786;2023-01-24T09:35:42;29.92;;;18.88;;
55114;SDS011;41010;53.252;5.786;2023-01-24T09:38:09;31.45;;;19.02;;
55114;SDS011;41010;53.252;5.786;2023-01-24T09:40:40;27.30;;;18.42;;
55114;SDS011;41010;53.252;5.786;2023-01-24T09:43:13;29.50;;;18.40;;
55114;SDS011;41010;53.252;5.786;2023-01-24T09:45:43;28.05;;;18.50;;
55114;SDS011;41010;53.252;5.786;2023-01-24T09:48:14;32.35;;;18.65;;
55114;SDS011;41010;53.252;5.786;2023-01-24T09:50:42;29.40;;;18.25;;
55114;SDS011;41010;53.252;5.786;2023-01-24T09:53:13;30.48;;;18.13;;
55114;SDS011;41010;53.252;5.786;2023-01-24T09:55:42;30.10;;;18.85;;
55114;SDS011;41010;53.252;5.786;2023-01-24T09:58:16;29.73;;;18.23;;
55114;SDS011;41010;53.252;5.786;2023-01-24T10:00:58;32.10;;;19.02;;
55114;SDS011;41010;53.252;5.786;2023-01-24T10:03:26;32.20;;;19.60;;
55114;SDS011;41010;53.252;5.786;2023-01-24T10:05:53;31.65;;;18.90;;
55114;SDS011;41010;53.252;5.786;2023-01-24T10:08:26;31.42;;;19.38;;
55114;SDS011;41010;53.252;5.786;2023-01-24T10:10:55;34.03;;;20.45;;
55114;SDS011;41010;53.252;5.786;2023-01-24T10:13:40;30.38;;;18.73;;
55114;SDS011;41010;53.252;5.786;2023-01-24T10:16:12;29.42;;;18.25;;
55114;SDS011;41010;53.252;5.786;2023-01-24T10:18:46;29.05;;;18.05;;
55114;SDS011;41010;53.252;5.786;2023-01-24T10:21:23;33.95;;;18.80;;
55114;SDS011;41010;53.252;5.786;2023-01-24T10:23:53;29.25;;;18.50;;
55114;SDS011;41010;53.252;5.786;2023-01-24T10:26:32;28.27;;;17.30;;
55114;SDS011;41010;53.252;5.786;2023-01-24T10:29:06;26.55;;;16.35;;
55114;SDS011;41010;53.252;5.786;2023-01-24T10:31:35;25.52;;;15.52;;
55114;SDS011;41010;53.252;5.786;2023-01-24T10:34:08;25.73;;;15.88;;
55114;SDS011;41010;53.252;5.786;2023-01-24T10:36:36;27.85;;;16.50;;
55114;SDS011;41010;53.252;5.786;2023-01-24T10:39:08;24.23;;;15.85;;
55114;SDS011;41010;53.252;5.786;2023-01-24T10:41:36;24.42;;;15.02;;
55114;SDS011;41010;53.252;5.786;2023-01-24T10:44:08;25.05;;;15.52;;
55114;SDS011;41010;53.252;5.786;2023-01-24T10:49:19;24.92;;;15.77;;
55114;SDS011;41010;53.252;5.786;2023-01-24T10:54:50;22.75;;;14.98;;
55114;SDS011;41010;53.252;5.786;2023-01-24T10:57:33;22.55;;;14.95;;
55114;SDS011;41010;53.252;5.786;2023-01-24T11:00:03;25.55;;;14.98;;
55114;SDS011;41010;53.252;5.786;2023-01-24T11:02:31;23.45;;;14.15;;
55114;SDS011;41010;53.252;5.786;2023-01-24T11:05:00;24.80;;;14.90;;
55114;SDS011;41010;53.252;5.786;2023-01-24T11:07:29;24.77;;;13.45;;
55114;SDS011;41010;53.252;5.786;2023-01-24T11:09:58;22.50;;;14.98;;
55114;SDS011;41010;53.252;5.786;2023-01-24T11:12:26;22.35;;;14.75;;
55114;SDS011;41010;53.252;5.786;2023-01-24T11:14:53;21.60;;;14.15;;
55114;SDS011;41010;53.252;5.786;2023-01-24T11:17:30;24.27;;;15.57;;
55114;SDS011;41010;53.252;5.786;2023-01-24T11:19:58;23.15;;;15.73;;
55114;SDS011;41010;53.252;5.786;2023-01-24T11:22:27;25.48;;;15.23;;
55114;SDS011;41010;53.252;5.786;2023-01-24T11:25:01;24.88;;;16.02;;
55114;SDS011;41010;53.252;5.786;2023-01-24T11:27:28;25.25;;;15.85;;
55114;SDS011;41010;53.252;5.786;2023-01-24T11:30:06;23.83;;;15.60;;
55114;SDS011;41010;53.252;5.786;2023-01-24T11:32:37;23.83;;;14.95;;
55114;SDS011;41010;53.252;5.786;2023-01-24T11:35:08;23.38;;;15.50;;
55114;SDS011;41010;53.252;5.786;2023-01-24T11:40:28;21.63;;;14.38;;
55114;SDS011;41010;53.252;5.786;2023-01-24T11:43:00;20.88;;;13.70;;
55114;SDS011;41010;53.252;5.786;2023-01-24T11:45:32;23.23;;;15.15;;
55114;SDS011;41010;53.252;5.786;2023-01-24T11:48:08;24.25;;;15.30;;
55114;SDS011;41010;53.252;5.786;2023-01-24T11:50:42;21.98;;;15.02;;
55114;SDS011;41010;53.252;5.786;2023-01-24T11:53:23;23.45;;;14.90;;
55114;SDS011;41010;53.252;5.786;2023-01-24T11:55:56;21.60;;;14.02;;
55114;SDS011;41010;53.252;5.786;2023-01-24T12:01:09;22.63;;;14.95;;
55114;SDS011;41010;53.252;5.786;2023-01-24T12:03:44;22.77;;;14.95;;
55114;SDS011;41010;53.252;5.786;2023-01-24T12:06:17;22.05;;;15.15;;
55114;SDS011;41010;53.252;5.786;2023-01-24T12:08:53;22.48;;;15.20;;
55114;SDS011;41010;53.252;5.786;2023-01-24T12:11:25;25.10;;;15.02;;
55114;SDS011;41010;53.252;5.786;2023-01-24T12:13:58;21.05;;;13.85;;
55114;SDS011;41010;53.252;5.786;2023-01-24T12:16:31;24.30;;;14.18;;
55114;SDS011;41010;53.252;5.786;2023-01-24T12:19:15;23.88;;;15.65;;
55114;SDS011;41010;53.252;5.786;2023-01-24T12:21:48;22.23;;;14.80;;
55114;SDS011;41010;53.252;5.786;2023-01-24T12:24:16;21.60;;;14.32;;
55114;SDS011;41010;53.252;5.786;2023-01-24T12:26:47;20.65;;;14.30;;
55114;SDS011;41010;53.252;5.786;2023-01-24T12:29:15;20.52;;;14.00;;
55114;SDS011;41010;53.252;5.786;2023-01-24T12:31:46;21.50;;;14.68;;
55114;SDS011;41010;53.252;5.786;2023-01-24T12:34:20;22.63;;;14.88;;
55114;SDS011;41010;53.252;5.786;2023-01-24T12:36:54;25.13;;;14.45;;
55114;SDS011;41010;53.252;5.786;2023-01-24T12:39:23;23.50;;;15.45;;
55114;SDS011;41010;53.252;5.786;2023-01-24T12:41:55;21.77;;;14.48;;
55114;SDS011;41010;53.252;5.786;2023-01-24T12:44:26;23.08;;;15.75;;
55114;SDS011;41010;53.252;5.786;2023-01-24T12:47:09;21.73;;;14.57;;
55114;SDS011;41010;53.252;5.786;2023-01-24T12:49:41;23.38;;;15.13;;
55114;SDS011;41010;53.252;5.786;2023-01-24T12:52:16;25.75;;;16.13;;
55114;SDS011;41010;53.252;5.786;2023-01-24T12:54:45;25.10;;;14.80;;
55114;SDS011;41010;53.252;5.786;2023-01-24T12:57:17;20.85;;;14.90;;
55114;SDS011;41010;53.252;5.786;2023-01-24T12:59:46;22.80;;;15.35;;
55114;SDS011;41010;53.252;5.786;2023-01-24T13:02:28;21.42;;;14.55;;
55114;SDS011;41010;53.252;5.786;2023-01-24T13:05:01;21.45;;;14.75;;
55114;SDS011;41010;53.252;5.786;2023-01-24T13:07:35;21.40;;;15.15;;
55114;SDS011;41010;53.252;5.786;2023-01-24T13:10:06;22.73;;;14.70;;
55114;SDS011;41010;53.252;5.786;2023-01-24T13:12:37;22.00;;;15.98;;
55114;SDS011;41010;53.252;5.786;2023-01-24T13:15:05;24.25;;;16.10;;
55114;SDS011;41010;53.252;5.786;2023-01-24T13:17:45;22.75;;;15.13;;
55114;SDS011;41010;53.252;5.786;2023-01-24T13:20:31;24.52;;;15.73;;
55114;SDS011;41010;53.252;5.786;2023-01-24T13:25:48;21.38;;;14.35;;
55114;SDS011;41010;53.252;5.786;2023-01-24T13:28:21;22.90;;;15.20;;
55114;SDS011;41010;53.252;5.786;2023-01-24T13:30:50;19.83;;;13.85;;
55114;SDS011;41010;53.252;5.786;2023-01-24T13:33:22;22.65;;;14.60;;
55114;SDS011;41010;53.252;5.786;2023-01-24T13:35:55;22.88;;;15.48;;
55114;SDS011;41010;53.252;5.786;2023-01-24T13:38:23;22.42;;;14.23;;
55114;SDS011;41010;53.252;5.786;2023-01-24T13:40:58;21.20;;;15.00;;
55114;SDS011;41010;53.252;5.786;2023-01-24T13:46:12;21.38;;;14.82;;
55114;SDS011;41010;53.252;5.786;2023-01-24T13:48:47;21.92;;;15.32;;
55114;SDS011;41010;53.252;5.786;2023-01-24T13:51:43;24.70;;;16.05;;
55114;SDS011;41010;53.252;5.786;2023-01-24T13:54:21;23.45;;;14.60;;
55114;SDS011;41010;53.252;5.786;2023-01-24T13:57:15;24.13;;;14.75;;
55114;SDS011;41010;53.252;5.786;2023-01-24T13:59:57;21.98;;;14.75;;
55114;SDS011;41010;53.252;5.786;2023-01-24T14:02:27;22.50;;;15.23;;
55114;SDS011;41010;53.252;5.786;2023-01-24T14:04:55;21.95;;;15.63;;
55114;SDS011;41010;53.252;5.786;2023-01-24T14:07:27;22.75;;;15.20;;
55114;SDS011;41010;53.252;5.786;2023-01-24T14:09:57;20.67;;;14.25;;
55114;SDS011;41010;53.252;5.786;2023-01-24T14:12:25;21.77;;;15.00;;
55114;SDS011;41010;53.252;5.786;2023-01-24T14:15:00;21.65;;;15.30;;
55114;SDS011;41010;53.252;5.786;2023-01-24T14:17:28;20.85;;;14.50;;
55114;SDS011;41010;53.252;5.786;2023-01-24T14:20:29;25.17;;;14.65;;
55114;SDS011;41010;53.252;5.786;2023-01-24T14:22:58;21.30;;;14.52;;
55114;SDS011;41010;53.252;5.786;2023-01-24T14:25:37;21.80;;;14.85;;
55114;SDS011;41010;53.252;5.786;2023-01-24T14:28:17;20.55;;;14.32;;
55114;SDS011;41010;53.252;5.786;2023-01-24T14:30:46;21.83;;;14.52;;
55114;SDS011;41010;53.252;5.786;2023-01-24T14:33:19;22.95;;;13.68;;
55114;SDS011;41010;53.252;5.786;2023-01-24T14:35:51;21.50;;;14.05;;
55114;SDS011;41010;53.252;5.786;2023-01-24T14:38:21;19.45;;;13.52;;
55114;SDS011;41010;53.252;5.786;2023-01-24T14:40:49;20.35;;;14.18;;
55114;SDS011;41010;53.252;5.786;2023-01-24T14:43:16;20.67;;;13.82;;
55114;SDS011;41010;53.252;5.786;2023-01-24T14:45:44;23.55;;;14.60;;
55114;SDS011;41010;53.252;5.786;2023-01-24T14:48:13;21.27;;;13.68;;
55114;SDS011;41010;53.252;5.786;2023-01-24T14:50:43;22.60;;;15.43;;
55114;SDS011;41010;53.252;5.786;2023-01-24T14:53:24;22.67;;;14.68;;
55114;SDS011;41010;53.252;5.786;2023-01-24T14:55:51;22.25;;;14.52;;
55114;SDS011;41010;53.252;5.786;2023-01-24T14:58:20;23.25;;;14.23;;